Apache — WCY5541 — position and weather

sailwx.info

Track history (hours):
 
Tides and Currents Weather Stations Pressure Air Temp Water Temp Dewpoint Dewpoint Depression Visibility Wind Speed Wind Dir Waves Ship Positions

Apache

Owner: SAUSE BROS., COOS BAY, OR. More information available from US FCC via Universal Licensing System and Coast Guard Vessel Documentation Center.

Last reported at 2017-Sep-23 19:34 UTC. Time now 2017-Sep-24 14:10 UTC.
Position N 33°44' W 118°16'.

Length 15 m; draft 2 m.

Type: Towing. MMSI: 367008720.

Date/timePositionNaut miles runAvg speedWind from/ knotsBaromVisibWave heightAir tempDewpointWater temp
2017-Sep-23 19:34N 33°44' W 118°16'1 0.0
2017-Sep-21 23:10N 33°43' W 118°16'1 4.7
2017-Sep-21 22:58N 33°43' W 118°15'2 4.9
2017-Sep-21 22:28N 33°44' W 118°12'1 0.4
2017-Sep-21 18:43N 33°44' W 118°10'0 0.4
2017-Sep-21 18:19N 33°44' W 118°10'2 5.0
2017-Sep-21 17:59N 33°44' W 118°12'3 5.3
2017-Sep-21 17:29N 33°43' W 118°15'2 0.1
2017-Sep-21 05:05N 33°44' W 118°16'0 1.0
2017-Sep-21 04:50N 33°44' W 118°16'2 4.2
2017-Sep-21 04:26N 33°43' W 118°14'2 5.4
2017-Sep-21 03:59N 33°44' W 118°12'2 1.2
2017-Sep-21 02:21N 33°44' W 118°09'0 0.0
2017-Sep-21 00:15N 33°44' W 118°09'0 0.6
2017-Sep-20 23:51N 33°44' W 118°10'2 5.4
2017-Sep-20 23:29N 33°44' W 118°12'1 0.2
2017-Sep-20 19:23N 33°43' W 118°13'2 5.3
2017-Sep-20 18:57N 33°44' W 118°10'1 2.3
2017-Sep-20 18:30N 33°44' W 118°09'5 0.5
2017-Sep-20 07:49N 33°43' W 118°16'1 0.3
2017-Sep-20 03:00N 33°43' W 118°14'2 0.2
2017-Sep-19 18:15N 33°44' W 118°16'2 0.2
2017-Sep-19 06:51N 33°43' W 118°14'1 0.5
2017-Sep-19 04:18N 33°44' W 118°13'2 6.0
2017-Sep-19 03:58N 33°43' W 118°14'2 0.4
2017-Sep-18 23:19N 33°44' W 118°16'0 0.0
2017-Sep-18 19:56N 33°44' W 118°16'0 0.0
2017-Sep-18 19:23N 33°44' W 118°16'0 0.0
2017-Sep-18 18:44N 33°44' W 118°16'0 0.6
2017-Sep-18 18:28N 33°44' W 118°16'2 3.8
2017-Sep-18 17:53N 33°43' W 118°14'2 0.4
2017-Sep-18 13:46N 33°43' W 118°16'  
2017-Sep-15 15:04N 33°44' W 118°13'0 0.0
2017-Sep-15 09:06N 33°44' W 118°13'2 5.3
2017-Sep-15 08:47N 33°43' W 118°15'1 4.4
2017-Sep-15 08:30N 33°44' W 118°16'1 0.0
2017-Sep-14 08:09N 33°43' W 118°15'1 4.9
2017-Sep-14 07:52N 33°43' W 118°14'1 0.2
2017-Sep-14 03:53N 33°44' W 118°13'2 3.7
2017-Sep-14 03:28N 33°43' W 118°15'2 0.8
2017-Sep-14 01:06N 33°44' W 118°16'0 0.3
2017-Sep-14 00:57N 33°44' W 118°16'0 0.1
2017-Sep-14 00:18N 33°44' W 118°16'0 0.0
2017-Sep-13 23:48N 33°44' W 118°16'  
Track history (hours):
 
Tides and Currents Weather Stations Pressure Air Temp Water Temp Dewpoint Dewpoint Depression Visibility Wind Speed Wind Dir Waves Ship Positions

Apache

Owner: SAUSE BROS., COOS BAY, OR. More information available from US FCC via Universal Licensing System and Coast Guard Vessel Documentation Center.

Last reported at 2017-Sep-23 19:34 UTC. Time now 2017-Sep-24 14:10 UTC.
Position N 33°44' W 118°16'.

Length 15 m; draft 2 m.

Type: Towing. MMSI: 367008720.

Date/timePositionNaut miles runAvg speedWind from/ knotsBaromVisibWave heightAir tempDewpointWater temp
2017-Sep-23 19:34N 33°44' W 118°16'1 0.0
2017-Sep-21 23:10N 33°43' W 118°16'1 4.7
2017-Sep-21 22:58N 33°43' W 118°15'2 4.9
2017-Sep-21 22:28N 33°44' W 118°12'1 0.4
2017-Sep-21 18:43N 33°44' W 118°10'0 0.4
2017-Sep-21 18:19N 33°44' W 118°10'2 5.0
2017-Sep-21 17:59N 33°44' W 118°12'3 5.3
2017-Sep-21 17:29N 33°43' W 118°15'2 0.1
2017-Sep-21 05:05N 33°44' W 118°16'0 1.0
2017-Sep-21 04:50N 33°44' W 118°16'2 4.2
2017-Sep-21 04:26N 33°43' W 118°14'2 5.4
2017-Sep-21 03:59N 33°44' W 118°12'2 1.2
2017-Sep-21 02:21N 33°44' W 118°09'0 0.0
2017-Sep-21 00:15N 33°44' W 118°09'0 0.6
2017-Sep-20 23:51N 33°44' W 118°10'2 5.4
2017-Sep-20 23:29N 33°44' W 118°12'1 0.2
2017-Sep-20 19:23N 33°43' W 118°13'2 5.3
2017-Sep-20 18:57N 33°44' W 118°10'1 2.3
2017-Sep-20 18:30N 33°44' W 118°09'5 0.5
2017-Sep-20 07:49N 33°43' W 118°16'1 0.3
2017-Sep-20 03:00N 33°43' W 118°14'2 0.2
2017-Sep-19 18:15N 33°44' W 118°16'2 0.2
2017-Sep-19 06:51N 33°43' W 118°14'1 0.5
2017-Sep-19 04:18N 33°44' W 118°13'2 6.0
2017-Sep-19 03:58N 33°43' W 118°14'2 0.4
2017-Sep-18 23:19N 33°44' W 118°16'0 0.0
2017-Sep-18 19:56N 33°44' W 118°16'0 0.0
2017-Sep-18 19:23N 33°44' W 118°16'0 0.0
2017-Sep-18 18:44N 33°44' W 118°16'0 0.6
2017-Sep-18 18:28N 33°44' W 118°16'2 3.8
2017-Sep-18 17:53N 33°43' W 118°14'2 0.4
2017-Sep-18 13:46N 33°43' W 118°16'  
2017-Sep-15 15:04N 33°44' W 118°13'0 0.0
2017-Sep-15 09:06N 33°44' W 118°13'2 5.3
2017-Sep-15 08:47N 33°43' W 118°15'1 4.4
2017-Sep-15 08:30N 33°44' W 118°16'1 0.0
2017-Sep-14 08:09N 33°43' W 118°15'1 4.9
2017-Sep-14 07:52N 33°43' W 118°14'1 0.2
2017-Sep-14 03:53N 33°44' W 118°13'2 3.7
2017-Sep-14 03:28N 33°43' W 118°15'2 0.8
2017-Sep-14 01:06N 33°44' W 118°16'0 0.3
2017-Sep-14 00:57N 33°44' W 118°16'0 0.1
2017-Sep-14 00:18N 33°44' W 118°16'0 0.0
2017-Sep-13 23:48N 33°44' W 118°16'  

Dump ship's entire track history